Liberty — WDD2088 — position and weather

sailwx.info

Track history (hours):
 
Tides and Currents Weather Stations Pressure Air Temp Water Temp Dewpoint Dewpoint Depression Visibility Wind Speed Wind Dir Waves Ship Positions

Liberty

Owner: HORIZON 82 LEASING LLC, Provo, UT. More information available from US FCC via Universal Licensing System.

Last reported at 2017-Jun-02 23:41 UTC. Time now 2017-Jul-24 14:29 UTC.
Position N 48°27' W 122°31'.
Warning: this ship's position is 51 days out of date.

Length 25 m; draft 2.2 m.

MMSI: 367110770.

Date/timePositionNaut miles runAvg speedWind from/ knotsBaromVisibWave heightAir tempDewpointWater temp
2017-Jun-02 23:41N 48°27' W 122°31'0 0.0
2017-Jun-02 23:31N 48°27' W 122°31'0 0.0
2017-Jun-02 23:00N 48°27' W 122°31'0 0.0
2017-Jun-02 22:31N 48°27' W 122°31'2 3.6
2017-Jun-02 22:00N 48°29' W 122°32'510.0
2017-Jun-02 21:30N 48°31' W 122°39'611.5
2017-Jun-02 21:01N 48°32' W 122°47'510.5
2017-Jun-02 20:31N 48°36' W 122°51'3 5.3
2017-Jun-02 20:00N 48°39' W 122°52'0 0.0
2017-Jun-02 19:30N 48°39' W 122°52'0 0.0
2017-Jun-02 19:00N 48°39' W 122°52'0 0.0
2017-Jun-02 18:30N 48°39' W 122°52'0 0.0
2017-Jun-02 17:57N 48°39' W 122°52'0 0.0
2017-Jun-02 17:30N 48°39' W 122°52'0 0.0
2017-Jun-02 17:00N 48°39' W 122°52'0 0.0
2017-Jun-02 16:30N 48°39' W 122°52'0 0.0
2017-Jun-02 15:57N 48°39' W 122°52'0 0.0
2017-Jun-02 15:27N 48°39' W 122°52'0 0.0
2017-Jun-02 15:00N 48°39' W 122°52'0 0.0
2017-Jun-02 14:30N 48°39' W 122°52'0 0.0
2017-Jun-02 13:30N 48°39' W 122°52'0 0.0
2017-Jun-02 13:00N 48°39' W 122°52'0 0.0
2017-Jun-02 12:30N 48°39' W 122°52'0 0.0
2017-Jun-02 12:00N 48°39' W 122°52'0 0.0
2017-Jun-02 11:30N 48°39' W 122°52'0 0.0
2017-Jun-02 10:57N 48°39' W 122°52'0 0.0
2017-Jun-02 10:30N 48°39' W 122°52'0 0.0
2017-Jun-02 10:00N 48°39' W 122°52'0 0.1
2017-Jun-02 09:30N 48°39' W 122°52'0 0.0
2017-Jun-02 09:00N 48°39' W 122°52'0 0.1
2017-Jun-02 08:30N 48°39' W 122°52'0 0.0
2017-Jun-02 07:51N 48°39' W 122°52'0 0.0
2017-Jun-02 07:30N 48°39' W 122°52'0 0.0
2017-Jun-02 07:00N 48°39' W 122°52'0 0.0
2017-Jun-02 06:30N 48°39' W 122°52'0 0.0
2017-Jun-02 05:54N 48°39' W 122°52'0 0.0
2017-Jun-02 05:30N 48°39' W 122°52'0 0.0
2017-Jun-02 05:00N 48°39' W 122°52'0 0.0
2017-Jun-02 04:30N 48°39' W 122°52'0 0.0
2017-Jun-02 04:00N 48°39' W 122°52'0 0.0
2017-Jun-02 03:30N 48°39' W 122°52'0 0.0
2017-Jun-02 02:51N 48°39' W 122°52'0 0.0
2017-Jun-02 02:30N 48°39' W 122°52'0 0.0
2017-Jun-02 02:00N 48°39' W 122°52'0 0.0
2017-Jun-01 23:39N 48°39' W 122°52'0 0.0
2017-Jun-01 23:15N 48°39' W 122°52'0 0.0
2017-Jun-01 22:48N 48°39' W 122°52'0 0.0
2017-Jun-01 22:15N 48°39' W 122°52'0 0.0
2017-Jun-01 22:00N 48°39' W 122°52'0 0.0
2017-Jun-01 21:27N 48°39' W 122°52'0 0.0
2017-Jun-01 21:00N 48°39' W 122°52'0 0.0
2017-Jun-01 20:30N 48°39' W 122°52'3 5.9
2017-Jun-01 20:01N 48°36' W 122°52'611.0
2017-Jun-01 19:30N 48°36' W 123°00'5 9.2
2017-Jun-01 19:00N 48°39' W 123°06'4 9.0
2017-Jun-01 18:30N 48°41' W 123°12'0 0.5
2017-Jun-01 18:00N 48°41' W 123°12'0 0.0
2017-Jun-01 17:27N 48°41' W 123°12'0 0.0
2017-Jun-01 16:39N 48°41' W 123°12'0 0.0
2017-Jun-01 16:27N 48°41' W 123°12'0 0.0
2017-Jun-01 15:21N 48°41' W 123°12'0 0.0
2017-Jun-01 14:57N 48°41' W 123°12'0 0.0
2017-Jun-01 14:30N 48°41' W 123°12'0 0.0
2017-Jun-01 13:30N 48°41' W 123°12'0 0.1
2017-Jun-01 12:54N 48°41' W 123°12'0 0.0
2017-Jun-01 12:24N 48°41' W 123°12'0 0.0
2017-Jun-01 11:57N 48°41' W 123°12'0 0.0
2017-Jun-01 10:36N 48°41' W 123°12'0 0.0
2017-Jun-01 10:03N 48°41' W 123°12'0 0.1
2017-Jun-01 10:00N 48°41' W 123°12'0 0.0
2017-Jun-01 09:30N 48°41' W 123°12'0 0.0
2017-Jun-01 09:00N 48°41' W 123°12'0 0.0
2017-Jun-01 07:51N 48°41' W 123°12'0 0.0
2017-Jun-01 07:15N 48°41' W 123°12'0 0.0
2017-Jun-01 06:51N 48°41' W 123°12'0 0.0
2017-Jun-01 05:30N 48°41' W 123°12'0 0.0
2017-Jun-01 05:00N 48°41' W 123°12'0 0.0
2017-Jun-01 04:30N 48°41' W 123°12'0 0.0
2017-Jun-01 03:39N 48°41' W 123°12'0 0.0
2017-Jun-01 03:30N 48°41' W 123°12'0 0.0
2017-Jun-01 02:48N 48°41' W 123°12'0 0.0
2017-Jun-01 02:27N 48°41' W 123°12'0 0.0
2017-Jun-01 01:45N 48°41' W 123°12'0 0.0
2017-Jun-01 01:15N 48°41' W 123°12'0 0.0
2017-Jun-01 00:54N 48°41' W 123°12'0 0.0
2017-Jun-01 00:21N 48°41' W 123°12'0 0.0
2017-May-31 23:54N 48°41' W 123°12'0 0.0
2017-May-31 23:27N 48°41' W 123°12'0 0.0
2017-May-31 22:57N 48°41' W 123°12'0 0.0
2017-May-31 22:27N 48°41' W 123°12'0 0.0
2017-May-31 21:09N 48°41' W 123°12'0 0.0
2017-May-31 20:42N 48°41' W 123°12'0 0.0
2017-May-31 20:27N 48°41' W 123°12'0 0.0
2017-May-31 20:00N 48°41' W 123°12'0 0.0
2017-May-31 19:30N 48°41' W 123°12'0 0.0
2017-May-31 19:00N 48°41' W 123°12'2 4.0
2017-May-31 18:31N 48°40' W 123°09'3 5.9
2017-May-31 18:00N 48°37' W 123°09'0 0.0
2017-May-31 17:30N 48°37' W 123°09'0 0.0
2017-May-31 17:00N 48°37' W 123°09'0 0.0
2017-May-31 16:24N 48°37' W 123°09'0 0.0
2017-May-31 15:57N 48°37' W 123°09'0 0.0
2017-May-31 15:30N 48°37' W 123°09'0 0.0
2017-May-31 15:00N 48°37' W 123°09'0 0.0
2017-May-31 14:00N 48°37' W 123°09'0 0.0
2017-May-31 13:30N 48°37' W 123°09'0 0.0
2017-May-31 13:00N 48°37' W 123°09'0 0.0
2017-May-31 12:30N 48°37' W 123°09'0 0.0
2017-May-31 12:00N 48°37' W 123°09'0 0.0
2017-May-31 11:30N 48°37' W 123°09'0 0.0
2017-May-31 11:00N 48°37' W 123°09'0 0.0
2017-May-31 10:30N 48°37' W 123°09'0 0.0
2017-May-31 10:00N 48°37' W 123°09'0 0.0
2017-May-31 09:30N 48°37' W 123°09'0 0.0
2017-May-31 09:00N 48°37' W 123°09'0 0.0
2017-May-31 08:30N 48°37' W 123°09'0 0.0
2017-May-31 08:00N 48°37' W 123°09'0 0.0
2017-May-31 07:30N 48°37' W 123°09'0 0.0
2017-May-31 07:00N 48°37' W 123°09'0 0.0
2017-May-31 06:30N 48°37' W 123°09'0 0.0
2017-May-31 06:00N 48°37' W 123°09'0 0.0
2017-May-31 05:18N 48°37' W 123°09'0 0.0
2017-May-31 04:57N 48°37' W 123°09'0 0.0
2017-May-31 04:27N 48°37' W 123°09'0 0.0
2017-May-31 04:00N 48°37' W 123°09'0 0.0
2017-May-31 03:30N 48°37' W 123°09'0 0.0
2017-May-31 03:00N 48°37' W 123°09'0 0.0
2017-May-31 02:21N 48°37' W 123°09'0 0.0
2017-May-31 02:00N 48°37' W 123°09'0 0.0
2017-May-31 01:09N 48°37' W 123°09'0 0.0
2017-May-31 00:54N 48°37' W 123°09'0 0.0
2017-May-31 00:27N 48°37' W 123°09'0 0.0
2017-May-31 00:00N 48°37' W 123°09'0 0.0
2017-May-30 23:30N 48°37' W 123°09'0 0.0
2017-May-30 23:00N 48°37' W 123°09'0 0.0
2017-May-30 22:15N 48°37' W 123°09'0 0.0
2017-May-30 22:00N 48°37' W 123°09'0 0.0
2017-May-30 21:27N 48°37' W 123°09'0 0.0
2017-May-30 21:00N 48°37' W 123°09'0 0.0
2017-May-30 20:15N 48°37' W 123°09'0 0.0
2017-May-30 20:00N 48°37' W 123°09'0 0.0
2017-May-30 19:30N 48°37' W 123°09'0 0.0
2017-May-30 19:00N 48°37' W 123°09'0 0.0
2017-May-30 18:30N 48°37' W 123°09'0 0.0
2017-May-30 15:48N 48°37' W 123°09'0 0.0
2017-May-30 15:24N 48°37' W 123°09'0 0.0
2017-May-30 14:51N 48°37' W 123°09'0 0.0
2017-May-30 14:30N 48°37' W 123°09'0 0.0
2017-May-30 13:18N 48°37' W 123°09'0 0.0
2017-May-30 12:48N 48°37' W 123°09'0 0.0
2017-May-30 11:00N 48°37' W 123°09'0 0.0
2017-May-30 07:09N 48°37' W 123°09'0 0.0
2017-May-30 04:54N 48°37' W 123°09'0 0.0
2017-May-29 22:40N 48°37' W 123°09'0 0.0
2017-May-29 22:13N 48°37' W 123°09'0 0.8
2017-May-29 21:59N 48°37' W 123°10'3 6.0
2017-May-29 21:29N 48°37' W 123°05'4 8.7
2017-May-29 20:59N 48°36' W 122°59'511.1
2017-May-29 20:30N 48°34' W 122°51'4 8.6
2017-May-29 20:00N 48°31' W 122°46'611.1
2017-May-29 19:30N 48°31' W 122°38'1 0.3
2017-May-29 15:20N 48°31' W 122°36'1 1.8
2017-May-29 15:00N 48°31' W 122°35'4 8.9
2017-May-29 14:31N 48°28' W 122°31'  
Track history (hours):
 
Tides and Currents Weather Stations Pressure Air Temp Water Temp Dewpoint Dewpoint Depression Visibility Wind Speed Wind Dir Waves Ship Positions

Liberty

Owner: HORIZON 82 LEASING LLC, Provo, UT. More information available from US FCC via Universal Licensing System.

Last reported at 2017-Jun-02 23:41 UTC. Time now 2017-Jul-24 14:29 UTC.
Position N 48°27' W 122°31'.
Warning: this ship's position is 51 days out of date.

Length 25 m; draft 2.2 m.

MMSI: 367110770.

Date/timePositionNaut miles runAvg speedWind from/ knotsBaromVisibWave heightAir tempDewpointWater temp
2017-Jun-02 23:41N 48°27' W 122°31'0 0.0
2017-Jun-02 23:31N 48°27' W 122°31'0 0.0
2017-Jun-02 23:00N 48°27' W 122°31'0 0.0
2017-Jun-02 22:31N 48°27' W 122°31'2 3.6
2017-Jun-02 22:00N 48°29' W 122°32'510.0
2017-Jun-02 21:30N 48°31' W 122°39'611.5
2017-Jun-02 21:01N 48°32' W 122°47'510.5
2017-Jun-02 20:31N 48°36' W 122°51'3 5.3
2017-Jun-02 20:00N 48°39' W 122°52'0 0.0
2017-Jun-02 19:30N 48°39' W 122°52'0 0.0
2017-Jun-02 19:00N 48°39' W 122°52'0 0.0
2017-Jun-02 18:30N 48°39' W 122°52'0 0.0
2017-Jun-02 17:57N 48°39' W 122°52'0 0.0
2017-Jun-02 17:30N 48°39' W 122°52'0 0.0
2017-Jun-02 17:00N 48°39' W 122°52'0 0.0
2017-Jun-02 16:30N 48°39' W 122°52'0 0.0
2017-Jun-02 15:57N 48°39' W 122°52'0 0.0
2017-Jun-02 15:27N 48°39' W 122°52'0 0.0
2017-Jun-02 15:00N 48°39' W 122°52'0 0.0
2017-Jun-02 14:30N 48°39' W 122°52'0 0.0
2017-Jun-02 13:30N 48°39' W 122°52'0 0.0
2017-Jun-02 13:00N 48°39' W 122°52'0 0.0
2017-Jun-02 12:30N 48°39' W 122°52'0 0.0
2017-Jun-02 12:00N 48°39' W 122°52'0 0.0
2017-Jun-02 11:30N 48°39' W 122°52'0 0.0
2017-Jun-02 10:57N 48°39' W 122°52'0 0.0
2017-Jun-02 10:30N 48°39' W 122°52'0 0.0
2017-Jun-02 10:00N 48°39' W 122°52'0 0.1
2017-Jun-02 09:30N 48°39' W 122°52'0 0.0
2017-Jun-02 09:00N 48°39' W 122°52'0 0.1
2017-Jun-02 08:30N 48°39' W 122°52'0 0.0
2017-Jun-02 07:51N 48°39' W 122°52'0 0.0
2017-Jun-02 07:30N 48°39' W 122°52'0 0.0
2017-Jun-02 07:00N 48°39' W 122°52'0 0.0
2017-Jun-02 06:30N 48°39' W 122°52'0 0.0
2017-Jun-02 05:54N 48°39' W 122°52'0 0.0
2017-Jun-02 05:30N 48°39' W 122°52'0 0.0
2017-Jun-02 05:00N 48°39' W 122°52'0 0.0
2017-Jun-02 04:30N 48°39' W 122°52'0 0.0
2017-Jun-02 04:00N 48°39' W 122°52'0 0.0
2017-Jun-02 03:30N 48°39' W 122°52'0 0.0
2017-Jun-02 02:51N 48°39' W 122°52'0 0.0
2017-Jun-02 02:30N 48°39' W 122°52'0 0.0
2017-Jun-02 02:00N 48°39' W 122°52'0 0.0
2017-Jun-01 23:39N 48°39' W 122°52'0 0.0
2017-Jun-01 23:15N 48°39' W 122°52'0 0.0
2017-Jun-01 22:48N 48°39' W 122°52'0 0.0
2017-Jun-01 22:15N 48°39' W 122°52'0 0.0
2017-Jun-01 22:00N 48°39' W 122°52'0 0.0
2017-Jun-01 21:27N 48°39' W 122°52'0 0.0
2017-Jun-01 21:00N 48°39' W 122°52'0 0.0
2017-Jun-01 20:30N 48°39' W 122°52'3 5.9
2017-Jun-01 20:01N 48°36' W 122°52'611.0
2017-Jun-01 19:30N 48°36' W 123°00'5 9.2
2017-Jun-01 19:00N 48°39' W 123°06'4 9.0
2017-Jun-01 18:30N 48°41' W 123°12'0 0.5
2017-Jun-01 18:00N 48°41' W 123°12'0 0.0
2017-Jun-01 17:27N 48°41' W 123°12'0 0.0
2017-Jun-01 16:39N 48°41' W 123°12'0 0.0
2017-Jun-01 16:27N 48°41' W 123°12'0 0.0
2017-Jun-01 15:21N 48°41' W 123°12'0 0.0
2017-Jun-01 14:57N 48°41' W 123°12'0 0.0
2017-Jun-01 14:30N 48°41' W 123°12'0 0.0
2017-Jun-01 13:30N 48°41' W 123°12'0 0.1
2017-Jun-01 12:54N 48°41' W 123°12'0 0.0
2017-Jun-01 12:24N 48°41' W 123°12'0 0.0
2017-Jun-01 11:57N 48°41' W 123°12'0 0.0
2017-Jun-01 10:36N 48°41' W 123°12'0 0.0
2017-Jun-01 10:03N 48°41' W 123°12'0 0.1
2017-Jun-01 10:00N 48°41' W 123°12'0 0.0
2017-Jun-01 09:30N 48°41' W 123°12'0 0.0
2017-Jun-01 09:00N 48°41' W 123°12'0 0.0
2017-Jun-01 07:51N 48°41' W 123°12'0 0.0
2017-Jun-01 07:15N 48°41' W 123°12'0 0.0
2017-Jun-01 06:51N 48°41' W 123°12'0 0.0
2017-Jun-01 05:30N 48°41' W 123°12'0 0.0
2017-Jun-01 05:00N 48°41' W 123°12'0 0.0
2017-Jun-01 04:30N 48°41' W 123°12'0 0.0
2017-Jun-01 03:39N 48°41' W 123°12'0 0.0
2017-Jun-01 03:30N 48°41' W 123°12'0 0.0
2017-Jun-01 02:48N 48°41' W 123°12'0 0.0
2017-Jun-01 02:27N 48°41' W 123°12'0 0.0
2017-Jun-01 01:45N 48°41' W 123°12'0 0.0
2017-Jun-01 01:15N 48°41' W 123°12'0 0.0
2017-Jun-01 00:54N 48°41' W 123°12'0 0.0
2017-Jun-01 00:21N 48°41' W 123°12'0 0.0
2017-May-31 23:54N 48°41' W 123°12'0 0.0
2017-May-31 23:27N 48°41' W 123°12'0 0.0
2017-May-31 22:57N 48°41' W 123°12'0 0.0
2017-May-31 22:27N 48°41' W 123°12'0 0.0
2017-May-31 21:09N 48°41' W 123°12'0 0.0
2017-May-31 20:42N 48°41' W 123°12'0 0.0
2017-May-31 20:27N 48°41' W 123°12'0 0.0
2017-May-31 20:00N 48°41' W 123°12'0 0.0
2017-May-31 19:30N 48°41' W 123°12'0 0.0
2017-May-31 19:00N 48°41' W 123°12'2 4.0
2017-May-31 18:31N 48°40' W 123°09'3 5.9
2017-May-31 18:00N 48°37' W 123°09'0 0.0
2017-May-31 17:30N 48°37' W 123°09'0 0.0
2017-May-31 17:00N 48°37' W 123°09'0 0.0
2017-May-31 16:24N 48°37' W 123°09'0 0.0
2017-May-31 15:57N 48°37' W 123°09'0 0.0
2017-May-31 15:30N 48°37' W 123°09'0 0.0
2017-May-31 15:00N 48°37' W 123°09'0 0.0
2017-May-31 14:00N 48°37' W 123°09'0 0.0
2017-May-31 13:30N 48°37' W 123°09'0 0.0
2017-May-31 13:00N 48°37' W 123°09'0 0.0
2017-May-31 12:30N 48°37' W 123°09'0 0.0
2017-May-31 12:00N 48°37' W 123°09'0 0.0
2017-May-31 11:30N 48°37' W 123°09'0 0.0
2017-May-31 11:00N 48°37' W 123°09'0 0.0
2017-May-31 10:30N 48°37' W 123°09'0 0.0
2017-May-31 10:00N 48°37' W 123°09'0 0.0
2017-May-31 09:30N 48°37' W 123°09'0 0.0
2017-May-31 09:00N 48°37' W 123°09'0 0.0
2017-May-31 08:30N 48°37' W 123°09'0 0.0
2017-May-31 08:00N 48°37' W 123°09'0 0.0
2017-May-31 07:30N 48°37' W 123°09'0 0.0
2017-May-31 07:00N 48°37' W 123°09'0 0.0
2017-May-31 06:30N 48°37' W 123°09'0 0.0
2017-May-31 06:00N 48°37' W 123°09'0 0.0
2017-May-31 05:18N 48°37' W 123°09'0 0.0
2017-May-31 04:57N 48°37' W 123°09'0 0.0
2017-May-31 04:27N 48°37' W 123°09'0 0.0
2017-May-31 04:00N 48°37' W 123°09'0 0.0
2017-May-31 03:30N 48°37' W 123°09'0 0.0
2017-May-31 03:00N 48°37' W 123°09'0 0.0
2017-May-31 02:21N 48°37' W 123°09'0 0.0
2017-May-31 02:00N 48°37' W 123°09'0 0.0
2017-May-31 01:09N 48°37' W 123°09'0 0.0
2017-May-31 00:54N 48°37' W 123°09'0 0.0
2017-May-31 00:27N 48°37' W 123°09'0 0.0
2017-May-31 00:00N 48°37' W 123°09'0 0.0
2017-May-30 23:30N 48°37' W 123°09'0 0.0
2017-May-30 23:00N 48°37' W 123°09'0 0.0
2017-May-30 22:15N 48°37' W 123°09'0 0.0
2017-May-30 22:00N 48°37' W 123°09'0 0.0
2017-May-30 21:27N 48°37' W 123°09'0 0.0
2017-May-30 21:00N 48°37' W 123°09'0 0.0
2017-May-30 20:15N 48°37' W 123°09'0 0.0
2017-May-30 20:00N 48°37' W 123°09'0 0.0
2017-May-30 19:30N 48°37' W 123°09'0 0.0
2017-May-30 19:00N 48°37' W 123°09'0 0.0
2017-May-30 18:30N 48°37' W 123°09'0 0.0
2017-May-30 15:48N 48°37' W 123°09'0 0.0
2017-May-30 15:24N 48°37' W 123°09'0 0.0
2017-May-30 14:51N 48°37' W 123°09'0 0.0
2017-May-30 14:30N 48°37' W 123°09'0 0.0
2017-May-30 13:18N 48°37' W 123°09'0 0.0
2017-May-30 12:48N 48°37' W 123°09'0 0.0
2017-May-30 11:00N 48°37' W 123°09'0 0.0
2017-May-30 07:09N 48°37' W 123°09'0 0.0
2017-May-30 04:54N 48°37' W 123°09'0 0.0
2017-May-29 22:40N 48°37' W 123°09'0 0.0
2017-May-29 22:13N 48°37' W 123°09'0 0.8
2017-May-29 21:59N 48°37' W 123°10'3 6.0
2017-May-29 21:29N 48°37' W 123°05'4 8.7
2017-May-29 20:59N 48°36' W 122°59'511.1
2017-May-29 20:30N 48°34' W 122°51'4 8.6
2017-May-29 20:00N 48°31' W 122°46'611.1
2017-May-29 19:30N 48°31' W 122°38'1 0.3
2017-May-29 15:20N 48°31' W 122°36'1 1.8
2017-May-29 15:00N 48°31' W 122°35'4 8.9
2017-May-29 14:31N 48°28' W 122°31'  

Dump ship's entire track history